Wakanami Maru — JD2484 — position and weather

sailwx.info

Track history (hours):
 
Tides and Currents Weather Stations Pressure Air Temp Water Temp Dewpoint Dewpoint Depression Visibility Wind Speed Wind Dir Waves Ship Positions

Wakanami Maru

Last reported at 2018-Jul-21 03:20 UTC. Time now 2018-Jul-22 04:56 UTC.
Position N 34°36' E 135°25'.

Length 74 m.

Type: Cargo ship. MMSI: 431000281.

Date/timePositionNaut miles runAvg speedWind from/ knotsBaromVisibWave heightAir tempDewpointWater temp
2018-Jul-21 03:20N 34°36' E 135°25'412.0
2018-Jul-21 02:58N 34°36' E 135°19'612.3
2018-Jul-21 02:27N 34°35' E 135°12'613.6
2018-Jul-21 02:00N 34°35' E 135°04'2 0.1
2018-Jul-20 08:14N 34°36' E 135°03'310.7
2018-Jul-20 07:55N 34°34' E 135°06'512.8
2018-Jul-20 07:30N 34°29' E 135°04'612.4
2018-Jul-20 07:00N 34°23' E 135°02'612.6
2018-Jul-20 06:30N 34°17' E 134°59'912.8
2018-Jul-20 05:48N 34°08' E 135°01'412.6
2018-Jul-20 05:29N 34°04' E 135°01'612.4
2018-Jul-20 05:00N 33°58' E 135°02'  
2018-Jul-16 07:04N 33°52' E 135°02'112.0
2018-Jul-16 07:00N 33°52' E 135°01'612.1
2018-Jul-16 06:30N 33°57' E 134°56'  
Track history (hours):
 
Tides and Currents Weather Stations Pressure Air Temp Water Temp Dewpoint Dewpoint Depression Visibility Wind Speed Wind Dir Waves Ship Positions

Wakanami Maru

Last reported at 2018-Jul-21 03:20 UTC. Time now 2018-Jul-22 04:56 UTC.
Position N 34°36' E 135°25'.

Length 74 m.

Type: Cargo ship. MMSI: 431000281.

Date/timePositionNaut miles runAvg speedWind from/ knotsBaromVisibWave heightAir tempDewpointWater temp
2018-Jul-21 03:20N 34°36' E 135°25'412.0
2018-Jul-21 02:58N 34°36' E 135°19'612.3
2018-Jul-21 02:27N 34°35' E 135°12'613.6
2018-Jul-21 02:00N 34°35' E 135°04'2 0.1
2018-Jul-20 08:14N 34°36' E 135°03'310.7
2018-Jul-20 07:55N 34°34' E 135°06'512.8
2018-Jul-20 07:30N 34°29' E 135°04'612.4
2018-Jul-20 07:00N 34°23' E 135°02'612.6
2018-Jul-20 06:30N 34°17' E 134°59'912.8
2018-Jul-20 05:48N 34°08' E 135°01'412.6
2018-Jul-20 05:29N 34°04' E 135°01'612.4
2018-Jul-20 05:00N 33°58' E 135°02'  
2018-Jul-16 07:04N 33°52' E 135°02'112.0
2018-Jul-16 07:00N 33°52' E 135°01'612.1
2018-Jul-16 06:30N 33°57' E 134°56'  

Dump ship's entire track history